sensor_id;sensor_type;location;lat;lon;timestamp;pressure;altitude;pressure_sealevel;temperature;humidity
7075;BME280;3578;51.568;6.932;2023-08-31T00:00:22;51390.78;;;-144.14;100.00
7075;BME280;3578;51.568;6.932;2023-08-31T00:02:50;51398.78;;;-144.14;100.00
7075;BME280;3578;51.568;6.932;2023-08-31T00:05:17;51410.81;;;-144.14;100.00
7075;BME280;3578;51.568;6.932;2023-08-31T00:07:45;51370.75;;;-144.14;100.00
7075;BME280;3578;51.568;6.932;2023-08-31T00:10:13;51376.75;;;-144.14;100.00
7075;BME280;3578;51.568;6.932;2023-08-31T00:12:42;51310.66;;;-144.14;100.00
7075;BME280;3578;51.568;6.932;2023-08-31T00:15:09;51362.75;;;-144.14;100.00
7075;BME280;3578;51.568;6.932;2023-08-31T00:17:36;51398.78;;;-144.14;100.00
7075;BME280;3578;51.568;6.932;2023-08-31T00:20:06;51416.81;;;-144.14;100.00
7075;BME280;3578;51.568;6.932;2023-08-31T00:22:34;51448.88;;;-144.14;100.00
7075;BME280;3578;51.568;6.932;2023-08-31T00:25:01;51466.91;;;-144.14;100.00
7075;BME280;3578;51.568;6.932;2023-08-31T00:27:29;51402.81;;;-144.14;100.00
7075;BME280;3578;51.568;6.932;2023-08-31T00:29:56;51382.78;;;-144.14;100.00
7075;BME280;3578;51.568;6.932;2023-08-31T00:32:24;51414.81;;;-144.14;100.00
7075;BME280;3578;51.568;6.932;2023-08-31T00:34:51;51392.78;;;-144.14;100.00
7075;BME280;3578;51.568;6.932;2023-08-31T00:37:18;51372.75;;;-144.14;100.00
7075;BME280;3578;51.568;6.932;2023-08-31T00:39:47;51388.78;;;-144.14;100.00
7075;BME280;3578;51.568;6.932;2023-08-31T00:42:17;51392.78;;;-144.14;100.00
7075;BME280;3578;51.568;6.932;2023-08-31T00:44:46;51366.75;;;-144.14;100.00
7075;BME280;3578;51.568;6.932;2023-08-31T00:47:13;51362.75;;;-144.14;100.00
7075;BME280;3578;51.568;6.932;2023-08-31T00:49:40;51360.75;;;-144.14;100.00
7075;BME280;3578;51.568;6.932;2023-08-31T00:52:07;51360.75;;;-144.14;100.00
7075;BME280;3578;51.568;6.932;2023-08-31T00:54:35;51440.84;;;-144.14;100.00
7075;BME280;3578;51.568;6.932;2023-08-31T00:57:03;51450.88;;;-144.14;100.00
7075;BME280;3578;51.568;6.932;2023-08-31T00:59:30;51414.81;;;-144.14;100.00
7075;BME280;3578;51.568;6.932;2023-08-31T01:02:05;51410.81;;;-144.14;100.00
7075;BME280;3578;51.568;6.932;2023-08-31T01:04:43;51386.78;;;-144.14;100.00
7075;BME280;3578;51.568;6.932;2023-08-31T01:07:21;51356.72;;;-144.14;100.00
7075;BME280;3578;51.568;6.932;2023-08-31T01:10:02;51382.78;;;-144.14;100.00
7075;BME280;3578;51.568;6.932;2023-08-31T01:12:40;51354.72;;;-144.14;100.00
7075;BME280;3578;51.568;6.932;2023-08-31T01:15:11;51370.75;;;-144.14;100.00
7075;BME280;3578;51.568;6.932;2023-08-31T01:17:47;51366.75;;;-144.14;100.00
7075;BME280;3578;51.568;6.932;2023-08-31T01:20:21;51410.81;;;-144.14;100.00
7075;BME280;3578;51.568;6.932;2023-08-31T01:22:59;51374.75;;;-144.14;100.00
7075;BME280;3578;51.568;6.932;2023-08-31T01:25:28;51356.72;;;-144.14;100.00
7075;BME280;3578;51.568;6.932;2023-08-31T01:27:56;51382.78;;;-144.14;100.00
7075;BME280;3578;51.568;6.932;2023-08-31T01:30:25;51328.69;;;-144.14;100.00
7075;BME280;3578;51.568;6.932;2023-08-31T01:32:52;51334.69;;;-144.14;100.00
7075;BME280;3578;51.568;6.932;2023-08-31T01:35:19;51332.69;;;-144.14;100.00
7075;BME280;3578;51.568;6.932;2023-08-31T01:37:52;51330.69;;;-144.14;100.00
7075;BME280;3578;51.568;6.932;2023-08-31T01:40:26;51364.75;;;-144.14;100.00
7075;BME280;3578;51.568;6.932;2023-08-31T01:42:59;51328.69;;;-144.14;100.00
7075;BME280;3578;51.568;6.932;2023-08-31T01:45:29;51308.66;;;-144.14;100.00
7075;BME280;3578;51.568;6.932;2023-08-31T01:47:57;51354.72;;;-144.14;100.00
7075;BME280;3578;51.568;6.932;2023-08-31T01:50:24;51334.69;;;-144.14;100.00
7075;BME280;3578;51.568;6.932;2023-08-31T01:52:52;51354.72;;;-144.14;100.00
7075;BME280;3578;51.568;6.932;2023-08-31T01:55:19;51308.66;;;-144.14;100.00
7075;BME280;3578;51.568;6.932;2023-08-31T01:57:47;51326.69;;;-144.14;100.00
7075;BME280;3578;51.568;6.932;2023-08-31T02:00:17;51366.75;;;-144.14;100.00
7075;BME280;3578;51.568;6.932;2023-08-31T02:02:45;51344.72;;;-144.14;100.00
7075;BME280;3578;51.568;6.932;2023-08-31T02:05:12;51338.72;;;-144.14;100.00
7075;BME280;3578;51.568;6.932;2023-08-31T02:07:39;51338.72;;;-144.14;100.00
7075;BME280;3578;51.568;6.932;2023-08-31T02:10:09;51334.69;;;-144.14;100.00
7075;BME280;3578;51.568;6.932;2023-08-31T02:12:36;51324.69;;;-144.14;100.00
7075;BME280;3578;51.568;6.932;2023-08-31T02:15:04;51334.69;;;-144.14;100.00
7075;BME280;3578;51.568;6.932;2023-08-31T02:17:34;51342.72;;;-144.14;100.00
7075;BME280;3578;51.568;6.932;2023-08-31T02:20:01;51296.66;;;-144.14;100.00
7075;BME280;3578;51.568;6.932;2023-08-31T02:22:30;51316.69;;;-144.14;100.00
7075;BME280;3578;51.568;6.932;2023-08-31T02:24:57;51332.69;;;-144.14;100.00
7075;BME280;3578;51.568;6.932;2023-08-31T02:27:24;51342.72;;;-144.14;100.00
7075;BME280;3578;51.568;6.932;2023-08-31T02:29:51;51320.69;;;-144.14;100.00
7075;BME280;3578;51.568;6.932;2023-08-31T02:32:19;51330.69;;;-144.14;100.00
7075;BME280;3578;51.568;6.932;2023-08-31T02:34:47;51332.69;;;-144.14;100.00
7075;BME280;3578;51.568;6.932;2023-08-31T02:37:14;51296.66;;;-144.14;100.00
7075;BME280;3578;51.568;6.932;2023-08-31T02:39:44;51278.63;;;-144.14;100.00
7075;BME280;3578;51.568;6.932;2023-08-31T02:42:11;51316.69;;;-144.14;100.00
7075;BME280;3578;51.568;6.932;2023-08-31T02:44:40;51320.69;;;-144.14;100.00
7075;BME280;3578;51.568;6.932;2023-08-31T02:47:07;51334.69;;;-144.14;100.00
7075;BME280;3578;51.568;6.932;2023-08-31T02:49:34;51338.72;;;-144.14;100.00
7075;BME280;3578;51.568;6.932;2023-08-31T02:52:03;51342.72;;;-144.14;100.00
7075;BME280;3578;51.568;6.932;2023-08-31T02:54:30;51354.72;;;-144.14;100.00
7075;BME280;3578;51.568;6.932;2023-08-31T02:56:57;51360.75;;;-144.14;100.00
7075;BME280;3578;51.568;6.932;2023-08-31T02:59:24;51354.72;;;-144.14;100.00
7075;BME280;3578;51.568;6.932;2023-08-31T03:01:51;51344.72;;;-144.14;100.00
7075;BME280;3578;51.568;6.932;2023-08-31T03:04:18;51380.78;;;-144.14;100.00
7075;BME280;3578;51.568;6.932;2023-08-31T03:06:45;51362.75;;;-144.14;100.00
7075;BME280;3578;51.568;6.932;2023-08-31T03:09:13;51374.75;;;-144.14;100.00
7075;BME280;3578;51.568;6.932;2023-08-31T03:11:40;51376.75;;;-144.14;100.00
7075;BME280;3578;51.568;6.932;2023-08-31T03:14:07;51366.75;;;-144.14;100.00
7075;BME280;3578;51.568;6.932;2023-08-31T03:16:35;51350.72;;;-144.14;100.00
7075;BME280;3578;51.568;6.932;2023-08-31T03:19:02;51418.81;;;-144.14;100.00
7075;BME280;3578;51.568;6.932;2023-08-31T03:21:29;51430.84;;;-144.14;100.00
7075;BME280;3578;51.568;6.932;2023-08-31T03:23:56;51414.81;;;-144.14;100.00
7075;BME280;3578;51.568;6.932;2023-08-31T03:26:25;51450.88;;;-144.14;100.00
7075;BME280;3578;51.568;6.932;2023-08-31T03:28:52;51434.84;;;-144.14;100.00
7075;BME280;3578;51.568;6.932;2023-08-31T03:31:19;51462.88;;;-144.14;100.00
7075;BME280;3578;51.568;6.932;2023-08-31T03:33:46;51470.91;;;-144.14;100.00
7075;BME280;3578;51.568;6.932;2023-08-31T03:36:13;51458.88;;;-144.14;100.00
7075;BME280;3578;51.568;6.932;2023-08-31T03:38:39;51476.91;;;-144.14;100.00
7075;BME280;3578;51.568;6.932;2023-08-31T03:41:07;51482.91;;;-144.14;100.00
7075;BME280;3578;51.568;6.932;2023-08-31T03:43:35;51414.81;;;-144.14;100.00
7075;BME280;3578;51.568;6.932;2023-08-31T03:46:02;51436.84;;;-144.14;100.00
7075;BME280;3578;51.568;6.932;2023-08-31T03:48:29;51422.84;;;-144.14;100.00
7075;BME280;3578;51.568;6.932;2023-08-31T03:50:56;51410.81;;;-144.14;100.00
7075;BME280;3578;51.568;6.932;2023-08-31T03:53:23;51414.81;;;-144.14;100.00
7075;BME280;3578;51.568;6.932;2023-08-31T03:55:50;51418.81;;;-144.14;100.00
7075;BME280;3578;51.568;6.932;2023-08-31T03:58:17;51394.78;;;-144.14;100.00
7075;BME280;3578;51.568;6.932;2023-08-31T04:00:49;51386.78;;;-144.14;100.00
7075;BME280;3578;51.568;6.932;2023-08-31T04:03:16;51428.84;;;-144.14;100.00
7075;BME280;3578;51.568;6.932;2023-08-31T04:05:43;51384.78;;;-144.14;100.00
7075;BME280;3578;51.568;6.932;2023-08-31T04:08:10;51416.81;;;-144.14;100.00
7075;BME280;3578;51.568;6.932;2023-08-31T04:10:37;51396.78;;;-144.14;100.00
7075;BME280;3578;51.568;6.932;2023-08-31T04:13:04;51370.75;;;-144.14;100.00
7075;BME280;3578;51.568;6.932;2023-08-31T04:15:32;51426.84;;;-144.14;100.00
7075;BME280;3578;51.568;6.932;2023-08-31T04:18:01;51380.78;;;-144.14;100.00
7075;BME280;3578;51.568;6.932;2023-08-31T04:20:28;51364.75;;;-144.14;100.00
7075;BME280;3578;51.568;6.932;2023-08-31T04:22:55;51382.78;;;-144.14;100.00
7075;BME280;3578;51.568;6.932;2023-08-31T04:25:22;51388.78;;;-144.14;100.00
7075;BME280;3578;51.568;6.932;2023-08-31T04:27:49;51414.81;;;-144.14;100.00
7075;BME280;3578;51.568;6.932;2023-08-31T04:30:16;51414.81;;;-144.14;100.00
7075;BME280;3578;51.568;6.932;2023-08-31T04:32:43;51410.81;;;-144.14;100.00
7075;BME280;3578;51.568;6.932;2023-08-31T04:35:13;51394.78;;;-144.14;100.00
7075;BME280;3578;51.568;6.932;2023-08-31T04:37:40;51402.81;;;-144.14;100.00
7075;BME280;3578;51.568;6.932;2023-08-31T04:40:09;51384.78;;;-144.14;100.00
7075;BME280;3578;51.568;6.932;2023-08-31T04:42:38;51450.88;;;-144.14;100.00
7075;BME280;3578;51.568;6.932;2023-08-31T04:45:07;51450.88;;;-144.14;100.00
7075;BME280;3578;51.568;6.932;2023-08-31T04:47:34;51466.91;;;-144.14;100.00
7075;BME280;3578;51.568;6.932;2023-08-31T04:50:01;51440.84;;;-144.14;100.00
7075;BME280;3578;51.568;6.932;2023-08-31T04:52:30;51426.84;;;-144.14;100.00
7075;BME280;3578;51.568;6.932;2023-08-31T04:54:57;51436.84;;;-144.14;100.00
7075;BME280;3578;51.568;6.932;2023-08-31T04:57:24;51400.81;;;-144.14;100.00
7075;BME280;3578;51.568;6.932;2023-08-31T04:59:51;51426.84;;;-144.14;100.00
7075;BME280;3578;51.568;6.932;2023-08-31T05:02:18;51394.78;;;-144.14;100.00
7075;BME280;3578;51.568;6.932;2023-08-31T05:04:46;51362.75;;;-144.14;100.00
7075;BME280;3578;51.568;6.932;2023-08-31T05:07:13;51414.81;;;-144.14;100.00
7075;BME280;3578;51.568;6.932;2023-08-31T05:09:41;51416.81;;;-144.14;100.00
7075;BME280;3578;51.568;6.932;2023-08-31T05:12:08;51422.84;;;-144.14;100.00
7075;BME280;3578;51.568;6.932;2023-08-31T05:14:35;51382.78;;;-144.14;100.00
7075;BME280;3578;51.568;6.932;2023-08-31T05:17:05;51364.75;;;-144.14;100.00
7075;BME280;3578;51.568;6.932;2023-08-31T05:19:32;51382.78;;;-144.14;100.00
7075;BME280;3578;51.568;6.932;2023-08-31T05:21:59;51406.81;;;-144.14;100.00
7075;BME280;3578;51.568;6.932;2023-08-31T05:24:26;51378.75;;;-144.14;100.00
7075;BME280;3578;51.568;6.932;2023-08-31T05:26:54;51380.78;;;-144.14;100.00
7075;BME280;3578;51.568;6.932;2023-08-31T05:29:21;51394.78;;;-144.14;100.00
7075;BME280;3578;51.568;6.932;2023-08-31T05:31:48;51438.84;;;-144.14;100.00
7075;BME280;3578;51.568;6.932;2023-08-31T05:34:16;51362.75;;;-144.14;100.00
7075;BME280;3578;51.568;6.932;2023-08-31T05:36:43;51514.97;;;-144.14;100.00
7075;BME280;3578;51.568;6.932;2023-08-31T05:39:10;51482.91;;;-144.14;100.00
7075;BME280;3578;51.568;6.932;2023-08-31T05:41:40;51462.88;;;-144.14;100.00
7075;BME280;3578;51.568;6.932;2023-08-31T05:44:09;51446.88;;;-144.14;100.00
7075;BME280;3578;51.568;6.932;2023-08-31T05:46:36;51458.88;;;-144.14;100.00
7075;BME280;3578;51.568;6.932;2023-08-31T05:49:04;51498.94;;;-144.14;100.00
7075;BME280;3578;51.568;6.932;2023-08-31T05:51:31;51484.94;;;-144.14;100.00
7075;BME280;3578;51.568;6.932;2023-08-31T05:53:58;51468.91;;;-144.14;100.00
7075;BME280;3578;51.568;6.932;2023-08-31T05:56:25;51498.94;;;-144.14;100.00
7075;BME280;3578;51.568;6.932;2023-08-31T05:58:52;51500.94;;;-144.14;100.00
7075;BME280;3578;51.568;6.932;2023-08-31T06:01:22;51474.91;;;-144.14;100.00
7075;BME280;3578;51.568;6.932;2023-08-31T06:03:49;51438.84;;;-144.14;100.00
7075;BME280;3578;51.568;6.932;2023-08-31T06:06:16;51458.88;;;-144.14;100.00
7075;BME280;3578;51.568;6.932;2023-08-31T06:08:43;51434.84;;;-144.14;100.00
7075;BME280;3578;51.568;6.932;2023-08-31T06:11:10;51434.84;;;-144.14;100.00
7075;BME280;3578;51.568;6.932;2023-08-31T06:13:38;51444.88;;;-144.14;100.00
7075;BME280;3578;51.568;6.932;2023-08-31T06:16:05;51392.78;;;-144.14;100.00
7075;BME280;3578;51.568;6.932;2023-08-31T06:18:34;51446.88;;;-144.14;100.00
7075;BME280;3578;51.568;6.932;2023-08-31T06:21:01;51412.81;;;-144.14;100.00
7075;BME280;3578;51.568;6.932;2023-08-31T06:23:28;51428.84;;;-144.14;100.00
7075;BME280;3578;51.568;6.932;2023-08-31T06:25:55;51366.75;;;-144.14;100.00
7075;BME280;3578;51.568;6.932;2023-08-31T06:28:22;51382.78;;;-144.14;100.00
7075;BME280;3578;51.568;6.932;2023-08-31T06:30:49;51424.84;;;-144.14;100.00
7075;BME280;3578;51.568;6.932;2023-08-31T06:33:16;51394.78;;;-144.14;100.00
7075;BME280;3578;51.568;6.932;2023-08-31T06:35:47;51366.75;;;-144.14;100.00
7075;BME280;3578;51.568;6.932;2023-08-31T06:38:17;51324.69;;;-144.14;100.00
7075;BME280;3578;51.568;6.932;2023-08-31T06:40:44;51338.72;;;-144.14;100.00
7075;BME280;3578;51.568;6.932;2023-08-31T06:43:11;51326.69;;;-144.14;100.00
7075;BME280;3578;51.568;6.932;2023-08-31T06:45:38;51306.66;;;-144.14;100.00
7075;BME280;3578;51.568;6.932;2023-08-31T06:48:06;51344.72;;;-144.14;100.00
7075;BME280;3578;51.568;6.932;2023-08-31T06:50:34;51322.69;;;-144.14;100.00
7075;BME280;3578;51.568;6.932;2023-08-31T06:53:03;51322.69;;;-144.14;100.00
7075;BME280;3578;51.568;6.932;2023-08-31T06:55:31;51262.59;;;-144.14;100.00
7075;BME280;3578;51.568;6.932;2023-08-31T06:57:59;51276.63;;;-144.14;100.00
7075;BME280;3578;51.568;6.932;2023-08-31T07:00:26;51246.56;;;-144.14;100.00
7075;BME280;3578;51.568;6.932;2023-08-31T07:02:53;51270.59;;;-144.14;100.00
7075;BME280;3578;51.568;6.932;2023-08-31T07:05:24;51134.41;;;-144.14;100.00
7075;BME280;3578;51.568;6.932;2023-08-31T07:07:52;51294.63;;;-144.14;100.00
7075;BME280;3578;51.568;6.932;2023-08-31T07:10:21;51314.66;;;-144.14;100.00
7075;BME280;3578;51.568;6.932;2023-08-31T07:12:48;51286.63;;;-144.14;100.00
7075;BME280;3578;51.568;6.932;2023-08-31T07:15:16;51278.63;;;-144.14;100.00
7075;BME280;3578;51.568;6.932;2023-08-31T07:17:43;51246.56;;;-144.14;100.00
7075;BME280;3578;51.568;6.932;2023-08-31T07:20:11;51266.59;;;-144.14;100.00
7075;BME280;3578;51.568;6.932;2023-08-31T07:22:38;51246.56;;;-144.14;100.00
7075;BME280;3578;51.568;6.932;2023-08-31T07:25:07;51262.59;;;-144.14;100.00
7075;BME280;3578;51.568;6.932;2023-08-31T07:27:36;51256.59;;;-144.14;100.00
7075;BME280;3578;51.568;6.932;2023-08-31T07:30:05;51254.59;;;-144.14;100.00
7075;BME280;3578;51.568;6.932;2023-08-31T07:32:32;51292.63;;;-144.14;100.00
7075;BME280;3578;51.568;6.932;2023-08-31T07:34:59;51270.59;;;-144.14;100.00
7075;BME280;3578;51.568;6.932;2023-08-31T07:37:26;51312.66;;;-144.14;100.00
7075;BME280;3578;51.568;6.932;2023-08-31T07:39:53;51306.66;;;-144.14;100.00
7075;BME280;3578;51.568;6.932;2023-08-31T07:42:20;51406.81;;;-144.14;100.00
7075;BME280;3578;51.568;6.932;2023-08-31T07:44:49;51533.00;;;-144.14;100.00
7075;BME280;3578;51.568;6.932;2023-08-31T07:47:16;51543.00;;;-144.14;100.00
7075;BME280;3578;51.568;6.932;2023-08-31T07:49:43;51559.03;;;-144.14;100.00
7075;BME280;3578;51.568;6.932;2023-08-31T07:52:10;51577.06;;;-144.14;100.00
7075;BME280;3578;51.568;6.932;2023-08-31T07:54:37;51559.03;;;-144.14;100.00
7075;BME280;3578;51.568;6.932;2023-08-31T07:57:04;51531.00;;;-144.14;100.00
7075;BME280;3578;51.568;6.932;2023-08-31T07:59:31;51500.94;;;-144.14;100.00
7075;BME280;3578;51.568;6.932;2023-08-31T08:01:59;51551.03;;;-144.14;100.00
7075;BME280;3578;51.568;6.932;2023-08-31T08:04:26;51595.09;;;-144.14;100.00
7075;BME280;3578;51.568;6.932;2023-08-31T08:06:55;51591.09;;;-144.14;100.00
7075;BME280;3578;51.568;6.932;2023-08-31T08:09:22;51567.06;;;-144.14;100.00
7075;BME280;3578;51.568;6.932;2023-08-31T08:11:49;51543.00;;;-144.14;100.00
7075;BME280;3578;51.568;6.932;2023-08-31T08:14:16;51508.97;;;-144.14;100.00
7075;BME280;3578;51.568;6.932;2023-08-31T08:16:43;51490.94;;;-144.14;100.00
7075;BME280;3578;51.568;6.932;2023-08-31T08:19:12;51514.97;;;-144.14;100.00
7075;BME280;3578;51.568;6.932;2023-08-31T08:21:39;51488.94;;;-144.14;100.00
7075;BME280;3578;51.568;6.932;2023-08-31T08:24:06;51474.91;;;-144.14;100.00
7075;BME280;3578;51.568;6.932;2023-08-31T08:26:33;51474.91;;;-144.14;100.00
7075;BME280;3578;51.568;6.932;2023-08-31T08:29:00;51474.91;;;-144.14;100.00
7075;BME280;3578;51.568;6.932;2023-08-31T08:31:27;51472.91;;;-144.14;100.00
7075;BME280;3578;51.568;6.932;2023-08-31T08:33:54;51484.94;;;-144.14;100.00
7075;BME280;3578;51.568;6.932;2023-08-31T08:36:23;51529.00;;;-144.14;100.00
7075;BME280;3578;51.568;6.932;2023-08-31T08:38:49;51565.06;;;-144.14;100.00
7075;BME280;3578;51.568;6.932;2023-08-31T08:41:19;51545.00;;;-144.14;100.00
7075;BME280;3578;51.568;6.932;2023-08-31T08:43:51;51611.13;;;-144.14;100.00
7075;BME280;3578;51.568;6.932;2023-08-31T08:46:18;51619.13;;;-144.14;100.00
7075;BME280;3578;51.568;6.932;2023-08-31T08:48:47;51639.16;;;-144.14;100.00
7075;BME280;3578;51.568;6.932;2023-08-31T08:51:15;51687.25;;;-144.14;98.63
7075;BME280;3578;51.568;6.932;2023-08-31T08:53:44;51673.22;;;-144.14;98.95
7075;BME280;3578;51.568;6.932;2023-08-31T08:56:11;51713.28;;;-144.14;99.93
7075;BME280;3578;51.568;6.932;2023-08-31T08:58:38;51713.28;;;-144.14;100.00
7075;BME280;3578;51.568;6.932;2023-08-31T09:01:07;51715.28;;;-144.14;98.70
7075;BME280;3578;51.568;6.932;2023-08-31T09:03:35;51777.38;;;-144.14;93.00
7075;BME280;3578;51.568;6.932;2023-08-31T09:06:02;51727.31;;;-144.14;97.37
7075;BME280;3578;51.568;6.932;2023-08-31T09:08:33;51757.34;;;-144.14;95.00
7075;BME280;3578;51.568;6.932;2023-08-31T09:11:04;51751.34;;;-144.14;95.48
7075;BME280;3578;51.568;6.932;2023-08-31T09:13:32;51763.34;;;-144.14;95.73
7075;BME280;3578;51.568;6.932;2023-08-31T09:15:59;51745.34;;;-144.14;95.02
7075;BME280;3578;51.568;6.932;2023-08-31T09:18:28;51767.38;;;-144.14;94.15
7075;BME280;3578;51.568;6.932;2023-08-31T09:20:56;51749.34;;;-144.14;94.76
7075;BME280;3578;51.568;6.932;2023-08-31T09:23:24;51763.34;;;-144.14;93.52
7075;BME280;3578;51.568;6.932;2023-08-31T09:25:53;51731.31;;;-144.14;95.15
7075;BME280;3578;51.568;6.932;2023-08-31T09:28:23;51783.41;;;-144.14;93.98
7075;BME280;3578;51.568;6.932;2023-08-31T09:30:52;51785.41;;;-144.14;92.72
7075;BME280;3578;51.568;6.932;2023-08-31T09:33:20;51775.38;;;-144.14;92.70
7075;BME280;3578;51.568;6.932;2023-08-31T09:35:50;51781.38;;;-144.14;93.74
7075;BME280;3578;51.568;6.932;2023-08-31T09:38:17;51751.34;;;-144.14;94.54
7075;BME280;3578;51.568;6.932;2023-08-31T09:40:44;51801.41;;;-144.14;94.82
7075;BME280;3578;51.568;6.932;2023-08-31T09:43:11;51823.47;;;-144.14;92.55
7075;BME280;3578;51.568;6.932;2023-08-31T09:45:40;51863.53;;;-144.14;90.42
7075;BME280;3578;51.568;6.932;2023-08-31T09:48:07;51849.50;;;-144.14;89.55
7075;BME280;3578;51.568;6.932;2023-08-31T09:50:35;51895.56;;;-144.14;90.17
7075;BME280;3578;51.568;6.932;2023-08-31T09:53:05;51899.59;;;-144.14;90.97
7075;BME280;3578;51.568;6.932;2023-08-31T09:55:39;51933.63;;;-144.14;88.08
7075;BME280;3578;51.568;6.932;2023-08-31T09:58:08;51959.69;;;-144.14;85.63
7075;BME280;3578;51.568;6.932;2023-08-31T10:00:36;51987.72;;;-144.14;84.51
7075;BME280;3578;51.568;6.932;2023-08-31T10:03:05;51995.75;;;-144.14;83.34
7075;BME280;3578;51.568;6.932;2023-08-31T10:05:32;51999.75;;;-144.14;83.06
7075;BME280;3578;51.568;6.932;2023-08-31T10:08:00;51933.63;;;-144.14;86.02
7075;BME280;3578;51.568;6.932;2023-08-31T10:10:28;52023.78;;;-144.14;84.35
7075;BME280;3578;51.568;6.932;2023-08-31T10:12:56;52035.81;;;-144.14;81.30
7075;BME280;3578;51.568;6.932;2023-08-31T10:15:31;52095.91;;;-144.14;81.54
7075;BME280;3578;51.568;6.932;2023-08-31T10:18:00;52081.88;;;-144.14;81.96
7075;BME280;3578;51.568;6.932;2023-08-31T10:20:29;52103.94;;;-144.14;82.19
7075;BME280;3578;51.568;6.932;2023-08-31T10:22:57;52129.97;;;-144.14;80.45
7075;BME280;3578;51.568;6.932;2023-08-31T10:25:25;52244.16;;;-144.14;76.97
7075;BME280;3578;51.568;6.932;2023-08-31T10:27:52;52244.16;;;-144.14;78.88
7075;BME280;3578;51.568;6.932;2023-08-31T10:30:26;52268.22;;;-144.14;79.14
7075;BME280;3578;51.568;6.932;2023-08-31T10:33:20;52318.28;;;-144.14;72.81
7075;BME280;3578;51.568;6.932;2023-08-31T10:35:51;52318.28;;;-144.14;73.45
7075;BME280;3578;51.568;6.932;2023-08-31T10:38:25;52308.28;;;-144.14;74.91
7075;BME280;3578;51.568;6.932;2023-08-31T10:41:22;52356.38;;;-144.14;68.38
7075;BME280;3578;51.568;6.932;2023-08-31T10:43:52;52398.44;;;-144.14;70.21
7075;BME280;3578;51.568;6.932;2023-08-31T10:46:25;52388.41;;;-144.14;74.21
7075;BME280;3578;51.568;6.932;2023-08-31T10:48:54;52410.47;;;-144.14;70.76
7075;BME280;3578;51.568;6.932;2023-08-31T10:51:25;52434.50;;;-144.14;72.91
7075;BME280;3578;51.568;6.932;2023-08-31T10:54:05;52372.38;;;-144.14;73.38
7075;BME280;3578;51.568;6.932;2023-08-31T10:56:32;52448.53;;;-144.14;73.99
7075;BME280;3578;51.568;6.932;2023-08-31T10:59:00;52436.50;;;-144.14;75.99
7075;BME280;3578;51.568;6.932;2023-08-31T11:01:54;52390.44;;;-144.14;77.03
7075;BME280;3578;51.568;6.932;2023-08-31T11:04:22;52412.47;;;-144.14;77.95
7075;BME280;3578;51.568;6.932;2023-08-31T11:07:13;52450.53;;;-144.14;75.96
7075;BME280;3578;51.568;6.932;2023-08-31T11:09:41;52462.56;;;-144.14;75.56
7075;BME280;3578;51.568;6.932;2023-08-31T11:12:09;52456.53;;;-144.14;73.47
7075;BME280;3578;51.568;6.932;2023-08-31T11:14:36;52440.50;;;-144.14;73.88
7075;BME280;3578;51.568;6.932;2023-08-31T11:17:04;52420.47;;;-144.14;76.14
7075;BME280;3578;51.568;6.932;2023-08-31T11:19:32;52378.41;;;-144.14;79.07
7075;BME280;3578;51.568;6.932;2023-08-31T11:22:02;52360.38;;;-144.14;78.58
7075;BME280;3578;51.568;6.932;2023-08-31T11:24:29;52340.34;;;-144.14;80.14
7075;BME280;3578;51.568;6.932;2023-08-31T11:26:56;52356.38;;;-144.14;79.77
7075;BME280;3578;51.568;6.932;2023-08-31T11:29:23;52392.44;;;-144.14;73.58
7075;BME280;3578;51.568;6.932;2023-08-31T11:31:50;52354.34;;;-144.14;75.64
7075;BME280;3578;51.568;6.932;2023-08-31T11:34:18;52422.47;;;-144.14;75.30
7075;BME280;3578;51.568;6.932;2023-08-31T11:36:46;52384.41;;;-144.14;77.88
7075;BME280;3578;51.568;6.932;2023-08-31T11:39:15;52440.50;;;-144.14;77.81
7075;BME280;3578;51.568;6.932;2023-08-31T11:41:44;52418.47;;;-144.14;79.77
7075;BME280;3578;51.568;6.932;2023-08-31T11:44:14;52412.47;;;-144.14;74.71
7075;BME280;3578;51.568;6.932;2023-08-31T11:46:45;52458.53;;;-144.14;74.63
7075;BME280;3578;51.568;6.932;2023-08-31T11:49:14;52460.56;;;-144.14;72.37
7075;BME280;3578;51.568;6.932;2023-08-31T11:51:41;52436.50;;;-144.14;74.06
7075;BME280;3578;51.568;6.932;2023-08-31T11:54:10;52470.56;;;-144.14;75.25
7075;BME280;3578;51.568;6.932;2023-08-31T11:56:42;52480.59;;;-144.14;75.12
7075;BME280;3578;51.568;6.932;2023-08-31T11:59:11;52470.56;;;-144.14;76.24
7075;BME280;3578;51.568;6.932;2023-08-31T12:01:39;52554.72;;;-144.14;70.07
7075;BME280;3578;51.568;6.932;2023-08-31T12:04:11;52510.66;;;-144.14;72.62
7075;BME280;3578;51.568;6.932;2023-08-31T12:06:39;52526.66;;;-144.14;75.20
7075;BME280;3578;51.568;6.932;2023-08-31T12:09:07;52474.56;;;-144.14;79.46
7075;BME280;3578;51.568;6.932;2023-08-31T12:11:34;52502.63;;;-144.14;77.13
7075;BME280;3578;51.568;6.932;2023-08-31T12:14:17;52540.69;;;-144.14;73.19
7075;BME280;3578;51.568;6.932;2023-08-31T12:16:44;52408.47;;;-144.14;70.08
7075;BME280;3578;51.568;6.932;2023-08-31T12:19:11;52612.81;;;-144.14;67.24
7075;BME280;3578;51.568;6.932;2023-08-31T12:21:39;52636.88;;;-144.14;60.83
7075;BME280;3578;51.568;6.932;2023-08-31T12:24:06;52640.88;;;-144.14;60.89
7075;BME280;3578;51.568;6.932;2023-08-31T12:26:34;52676.94;;;-144.14;61.91
7075;BME280;3578;51.568;6.932;2023-08-31T12:29:03;52727.03;;;-144.14;60.31
7075;BME280;3578;51.568;6.932;2023-08-31T12:31:31;52757.09;;;-144.14;58.01
7075;BME280;3578;51.568;6.932;2023-08-31T12:33:58;52757.09;;;-144.14;60.67
7075;BME280;3578;51.568;6.932;2023-08-31T12:36:26;52781.16;;;-144.14;58.00
7075;BME280;3578;51.568;6.932;2023-08-31T12:38:53;52849.28;;;-144.14;58.15
7075;BME280;3578;51.568;6.932;2023-08-31T12:41:20;52823.22;;;-144.14;61.51
7075;BME280;3578;51.568;6.932;2023-08-31T12:43:46;52793.16;;;-144.14;62.38
7075;BME280;3578;51.568;6.932;2023-08-31T12:46:15;52825.22;;;-144.14;62.35
7075;BME280;3578;51.568;6.932;2023-08-31T12:48:42;52777.13;;;-144.14;62.63
7075;BME280;3578;51.568;6.932;2023-08-31T12:51:09;52817.22;;;-144.14;65.73
7075;BME280;3578;51.568;6.932;2023-08-31T12:53:39;52845.28;;;-144.14;66.23
7075;BME280;3578;51.568;6.932;2023-08-31T12:56:06;52845.28;;;-144.14;61.96
7075;BME280;3578;51.568;6.932;2023-08-31T12:58:33;52869.31;;;-144.14;64.40